createdAt,value
2023-04-17T00:00:38.107Z,11.53
2023-04-17T00:03:25.973Z,12.90
2023-04-17T00:05:59.879Z,11.70
2023-04-17T00:08:34.289Z,12.23
2023-04-17T00:11:09.139Z,11.77
2023-04-17T00:13:44.325Z,11.47
2023-04-17T00:16:18.397Z,12.03
2023-04-17T00:18:52.632Z,12.73
2023-04-17T00:21:30.026Z,13.00
2023-04-17T00:24:03.799Z,12.73
2023-04-17T00:26:36.828Z,13.73
2023-04-17T00:29:10.401Z,14.27
2023-04-17T00:31:44.331Z,15.33
2023-04-17T00:34:18.313Z,13.70
2023-04-17T00:36:52.458Z,14.57
2023-04-17T00:39:26.673Z,13.27
2023-04-17T00:42:00.479Z,14.27
2023-04-17T00:44:35.515Z,13.80
2023-04-17T00:47:09.862Z,13.53
2023-04-17T00:49:44.198Z,14.10
2023-04-17T00:52:28.712Z,13.63
2023-04-17T00:55:03.801Z,13.63
2023-04-17T00:57:37.955Z,13.63
2023-04-17T01:00:15.549Z,13.87
2023-04-17T01:02:50.955Z,13.57
2023-04-17T01:05:25.245Z,13.97
2023-04-17T01:08:00.209Z,14.27
2023-04-17T01:10:34.033Z,14.27
2023-04-17T01:13:09.270Z,13.90
2023-04-17T01:15:44.882Z,15.57
2023-04-17T01:18:19.337Z,14.00
2023-04-17T01:20:53.390Z,15.63
2023-04-17T01:23:29.013Z,15.67
2023-04-17T01:26:03.289Z,15.73
2023-04-17T01:28:37.218Z,15.77
2023-04-17T01:31:15.992Z,15.00
2023-04-17T01:33:53.854Z,13.73
2023-04-17T01:36:28.782Z,14.83
2023-04-17T01:39:02.412Z,14.73
2023-04-17T01:41:36.617Z,14.10
2023-04-17T01:44:11.278Z,13.20
2023-04-17T01:46:45.773Z,13.03
2023-04-17T01:49:20.143Z,12.83
2023-04-17T01:51:55.385Z,13.23
2023-04-17T01:54:29.446Z,12.53
2023-04-17T01:57:03.001Z,14.10
2023-04-17T01:59:37.619Z,12.87
2023-04-17T02:02:11.426Z,12.77
2023-04-17T02:04:45.467Z,11.10
2023-04-17T02:07:19.254Z,12.50
2023-04-17T02:09:54.458Z,12.17
2023-04-17T02:12:28.121Z,14.03
2023-04-17T02:15:01.883Z,14.07
2023-04-17T02:17:35.770Z,16.27
2023-04-17T02:20:12.657Z,16.17
2023-04-17T02:22:46.356Z,16.27
2023-04-17T02:25:19.801Z,17.13
2023-04-17T02:27:53.838Z,18.33
2023-04-17T02:30:29.764Z,17.50
2023-04-17T02:33:03.902Z,19.60
2023-04-17T02:35:37.896Z,21.37
2023-04-17T02:38:13.160Z,18.77
2023-04-17T02:40:47.298Z,19.10
2023-04-17T02:43:21.364Z,19.60
2023-04-17T02:45:56.919Z,18.40
2023-04-17T02:48:32.048Z,17.07
2023-04-17T02:51:06.399Z,16.67
2023-04-17T02:53:41.029Z,17.00
2023-04-17T02:56:15.106Z,17.40
2023-04-17T02:58:49.322Z,15.87
2023-04-17T03:01:23.767Z,15.53
2023-04-17T03:03:58.044Z,15.50
2023-04-17T03:06:31.893Z,14.80
2023-04-17T03:09:06.111Z,14.77
2023-04-17T03:11:39.803Z,14.13
2023-04-17T03:14:13.308Z,14.03
2023-04-17T03:16:48.608Z,15.00
2023-04-17T03:19:23.374Z,14.37
2023-04-17T03:21:57.496Z,14.70
2023-04-17T03:24:31.501Z,14.40
2023-04-17T03:27:05.599Z,15.73
2023-04-17T03:29:45.555Z,16.53
2023-04-17T03:32:20.102Z,15.07
2023-04-17T03:34:54.596Z,15.30
2023-04-17T03:37:28.475Z,15.50
2023-04-17T03:40:04.460Z,15.50
2023-04-17T03:42:37.854Z,14.67
2023-04-17T03:45:13.932Z,15.30
2023-04-17T03:47:47.981Z,15.70
2023-04-17T03:50:22.748Z,15.35
2023-04-17T03:53:02.154Z,15.03
2023-04-17T03:55:37.110Z,14.97
2023-04-17T03:58:11.523Z,14.90
2023-04-17T04:00:46.327Z,15.30
2023-04-17T04:03:20.539Z,14.50
2023-04-17T04:05:55.190Z,14.87
2023-04-17T04:08:29.606Z,14.10
2023-04-17T04:11:03.614Z,12.80
2023-04-17T04:13:42.754Z,12.90
2023-04-17T04:16:16.599Z,12.50
2023-04-17T04:18:50.761Z,12.77
2023-04-17T04:21:25.075Z,12.37
2023-04-17T04:23:58.997Z,12.20
2023-04-17T04:26:33.416Z,12.40
2023-04-17T04:29:07.198Z,10.80
2023-04-17T04:31:52.757Z,11.13
2023-04-17T04:34:30.028Z,10.77
2023-04-17T04:37:04.230Z,11.03
2023-04-17T04:39:54.230Z,10.73
2023-04-17T04:42:28.595Z,10.77
2023-04-17T04:45:14.141Z,10.97
2023-04-17T04:47:49.341Z,10.65
2023-04-17T04:50:23.197Z,10.70
2023-04-17T04:52:56.776Z,10.70
2023-04-17T04:55:49.351Z,11.05
2023-04-17T04:58:23.725Z,10.60
2023-04-17T05:00:58.631Z,11.33
2023-04-17T05:03:37.767Z,11.97
2023-04-17T05:06:13.928Z,11.60
2023-04-17T05:08:51.696Z,11.50
2023-04-17T05:11:25.505Z,11.47
2023-04-17T05:13:59.512Z,10.90
2023-04-17T05:16:35.995Z,10.33
2023-04-17T05:19:10.422Z,11.53
2023-04-17T05:22:07.012Z,10.30
2023-04-17T05:24:46.099Z,11.03
2023-04-17T05:27:19.674Z,11.43
2023-04-17T05:29:53.773Z,10.53
2023-04-17T05:32:27.924Z,10.63
2023-04-17T05:35:09.294Z,10.60
2023-04-17T05:37:43.276Z,11.13
2023-04-17T05:40:18.129Z,11.07
2023-04-17T05:42:51.946Z,11.60
2023-04-17T05:45:26.559Z,11.00
2023-04-17T05:48:00.302Z,13.47
2023-04-17T05:50:34.342Z,11.43
2023-04-17T05:53:09.027Z,12.20
2023-04-17T05:55:47.162Z,10.80
2023-04-17T05:58:24.088Z,11.80
2023-04-17T06:01:02.677Z,10.80
2023-04-17T06:03:36.808Z,12.47
2023-04-17T06:06:17.562Z,11.57
2023-04-17T06:08:52.695Z,10.90
2023-04-17T06:11:28.329Z,12.07
2023-04-17T06:14:02.546Z,12.63
2023-04-17T06:16:36.424Z,11.90
2023-04-17T06:19:10.721Z,11.27
2023-04-17T06:21:45.416Z,11.07
2023-04-17T06:24:20.068Z,11.80
2023-04-17T06:26:53.872Z,11.60
2023-04-17T06:29:28.088Z,12.50
2023-04-17T06:32:02.113Z,11.63
2023-04-17T06:34:41.330Z,10.87
2023-04-17T06:37:20.787Z,10.63
2023-04-17T06:39:54.939Z,10.50
2023-04-17T06:42:29.441Z,11.27
2023-04-17T06:45:08.309Z,10.13
2023-04-17T06:47:43.838Z,9.90
2023-04-17T06:50:17.143Z,11.13
2023-04-17T06:52:51.574Z,10.57
2023-04-17T06:55:25.947Z,9.07
2023-04-17T06:57:59.340Z,9.20
2023-04-17T07:00:33.793Z,8.73
2023-04-17T07:03:08.027Z,9.43
2023-04-17T07:05:45.021Z,10.50
2023-04-17T07:08:22.610Z,10.37
2023-04-17T07:10:57.007Z,10.47
2023-04-17T07:13:31.792Z,10.03
2023-04-17T07:16:06.630Z,10.77
2023-04-17T07:18:40.424Z,11.00
2023-04-17T07:21:14.429Z,9.80
2023-04-17T07:23:48.855Z,10.77
2023-04-17T07:26:23.062Z,10.70
2023-04-17T07:28:57.356Z,11.10
2023-04-17T07:31:31.384Z,11.23
2023-04-17T07:34:05.503Z,10.15
2023-04-17T07:36:39.738Z,10.83
2023-04-17T07:39:13.773Z,10.93
2023-04-17T07:41:48.343Z,10.37
2023-04-17T07:44:22.353Z,10.43
2023-04-17T07:46:56.060Z,10.27
2023-04-17T07:49:30.017Z,11.37
2023-04-17T07:52:04.376Z,10.73
2023-04-17T07:54:38.885Z,11.23
2023-04-17T07:57:11.607Z,11.20
2023-04-17T07:59:45.384Z,11.10
2023-04-17T08:02:19.524Z,11.53
2023-04-17T08:04:54.943Z,10.80
2023-04-17T08:07:29.344Z,10.97
2023-04-17T08:10:02.968Z,10.30
2023-04-17T08:12:36.667Z,10.47
2023-04-17T08:15:12.803Z,11.47
2023-04-17T08:17:46.600Z,11.40
2023-04-17T08:20:20.804Z,11.77
2023-04-17T08:22:54.952Z,11.70
2023-04-17T08:25:29.161Z,12.03
2023-04-17T08:28:02.438Z,13.03
2023-04-17T08:30:36.161Z,12.63
2023-04-17T08:33:10.179Z,12.63
2023-04-17T08:35:44.224Z,13.40
2023-04-17T08:38:18.046Z,12.67
2023-04-17T08:40:55.177Z,11.50
2023-04-17T08:43:31.836Z,11.93
2023-04-17T08:46:07.698Z,12.80
2023-04-17T08:48:42.057Z,12.00
2023-04-17T08:51:17.479Z,11.17
2023-04-17T08:53:50.852Z,11.50
2023-04-17T08:56:24.852Z,10.60
2023-04-17T08:58:59.123Z,10.83
2023-04-17T09:01:34.998Z,11.33
2023-04-17T09:04:09.089Z,10.77
2023-04-17T09:06:54.641Z,11.73
2023-04-17T09:09:47.690Z,10.90
2023-04-17T09:12:21.793Z,11.57
2023-04-17T09:14:56.301Z,10.65
2023-04-17T09:17:38.170Z,10.47
2023-04-17T09:20:14.522Z,10.95
2023-04-17T09:22:48.463Z,11.30
2023-04-17T09:25:24.432Z,11.27
2023-04-17T09:28:03.090Z,10.97
2023-04-17T09:30:42.227Z,10.87
2023-04-17T09:33:16.074Z,11.97
2023-04-17T09:35:50.085Z,12.23
2023-04-17T09:38:40.281Z,12.23
2023-04-17T09:41:25.844Z,12.27
2023-04-17T09:44:05.719Z,12.80
2023-04-17T09:46:42.958Z,12.30
2023-04-17T09:49:21.364Z,12.07
2023-04-17T09:51:57.154Z,13.20
2023-04-17T09:54:32.924Z,12.13
2023-04-17T09:57:08.629Z,11.47
2023-04-17T09:59:45.478Z,11.27
2023-04-17T10:02:20.699Z,11.30
2023-04-17T10:04:56.379Z,12.63
2023-04-17T10:07:31.626Z,11.70
2023-04-17T10:10:09.612Z,11.63
2023-04-17T10:12:44.441Z,12.43
2023-04-17T10:15:20.533Z,12.60
2023-04-17T10:17:56.494Z,13.30
2023-04-17T10:20:45.217Z,12.23
2023-04-17T10:23:35.739Z,12.67
2023-04-17T10:26:46.590Z,11.83
2023-04-17T10:29:40.995Z,11.10
2023-04-17T10:32:22.071Z,10.00
2023-04-17T10:34:57.422Z,9.58
2023-04-17T10:38:08.081Z,10.50
2023-04-17T10:40:44.544Z,9.53
2023-04-17T10:43:20.621Z,10.10
2023-04-17T10:46:03.069Z,9.57
2023-04-17T10:48:39.060Z,9.87
2023-04-17T10:51:42.659Z,8.87
2023-04-17T10:54:16.843Z,9.73
2023-04-17T10:56:56.316Z,9.87
2023-04-17T10:59:31.268Z,10.20
2023-04-17T11:02:07.987Z,9.10
2023-04-17T11:04:42.081Z,9.87
2023-04-17T11:07:18.626Z,10.17
2023-04-17T11:09:56.052Z,9.17
2023-04-17T11:12:32.873Z,9.70
2023-04-17T11:15:10.111Z,9.57
2023-04-17T11:17:47.431Z,10.90
2023-04-17T11:20:24.509Z,10.83
2023-04-17T11:22:58.616Z,9.90
2023-04-17T11:25:34.570Z,10.57
2023-04-17T11:35:07.785Z,13.33
2023-04-17T11:41:10.044Z,12.57
2023-04-17T11:43:44.678Z,12.17
2023-04-17T11:46:20.457Z,13.10
2023-04-17T11:48:54.772Z,13.73
2023-04-17T11:51:29.644Z,12.57
2023-04-17T11:54:05.425Z,11.93
2023-04-17T11:56:38.667Z,13.00
2023-04-17T11:59:12.449Z,13.77
2023-04-17T12:01:55.311Z,12.53
2023-04-17T12:04:29.722Z,13.40
2023-04-17T12:07:03.405Z,14.03
2023-04-17T12:09:38.957Z,13.97
2023-04-17T12:12:12.602Z,13.37
2023-04-17T12:14:45.640Z,14.73
2023-04-17T12:17:20.552Z,14.03
2023-04-17T12:19:54.141Z,14.00
2023-04-17T12:22:27.920Z,13.97
2023-04-17T12:25:01.140Z,13.80
2023-04-17T12:27:38.924Z,13.97
2023-04-17T12:30:16.636Z,14.73
2023-04-17T12:32:52.409Z,13.47
2023-04-17T12:35:31.381Z,14.67
2023-04-17T12:38:04.721Z,15.60
2023-04-17T12:40:39.447Z,15.83
2023-04-17T12:43:13.204Z,14.57
2023-04-17T12:45:47.124Z,13.60
2023-04-17T12:48:20.714Z,14.03
2023-04-17T12:50:54.727Z,12.77
2023-04-17T12:53:28.109Z,13.67
2023-04-17T12:56:01.517Z,13.70
2023-04-17T12:58:36.020Z,12.20
2023-04-17T13:01:10.054Z,12.10
2023-04-17T13:03:45.007Z,12.90
2023-04-17T13:06:18.699Z,12.47
2023-04-17T13:08:53.393Z,14.10
2023-04-17T13:11:28.628Z,14.30
2023-04-17T13:14:04.070Z,14.03
2023-04-17T13:16:39.159Z,13.60
2023-04-17T13:19:12.961Z,13.80
2023-04-17T13:21:46.833Z,13.07
2023-04-17T13:24:20.928Z,14.70
2023-04-17T13:26:54.942Z,14.90
2023-04-17T13:29:28.760Z,12.70
2023-04-17T13:32:03.977Z,13.07
2023-04-17T13:34:37.373Z,12.77
2023-04-17T13:37:11.179Z,13.00
2023-04-17T13:39:44.845Z,12.17
2023-04-17T13:42:20.500Z,11.27
2023-04-17T13:44:53.641Z,12.30
2023-04-17T13:47:27.073Z,14.07
2023-04-17T13:50:04.162Z,14.23
2023-04-17T13:52:37.729Z,10.70
2023-04-17T13:55:14.778Z,10.53
2023-04-17T13:57:48.573Z,11.20
2023-04-17T14:00:24.044Z,11.50
2023-04-17T14:02:57.573Z,12.23
2023-04-17T14:05:31.421Z,12.03
2023-04-17T14:08:05.036Z,10.03
2023-04-17T14:10:38.164Z,9.80
2023-04-17T14:13:11.405Z,9.40
2023-04-17T14:15:47.898Z,9.40
2023-04-17T14:18:21.784Z,9.87
2023-04-17T14:20:56.120Z,10.13
2023-04-17T14:23:29.694Z,9.97
2023-04-17T14:26:04.324Z,9.70
2023-04-17T14:28:38.624Z,10.73
2023-04-17T14:31:12.192Z,10.27
2023-04-17T14:33:45.530Z,10.33
2023-04-17T14:36:19.125Z,10.07
2023-04-17T14:38:54.152Z,10.20
2023-04-17T14:41:30.228Z,10.20
2023-04-17T14:44:04.022Z,10.07
2023-04-17T14:46:39.495Z,10.37
2023-04-17T14:49:13.073Z,10.50
2023-04-17T14:51:46.528Z,10.30
2023-04-17T14:54:20.467Z,9.73
2023-04-17T14:56:57.899Z,10.10
2023-04-17T14:59:32.468Z,10.10
2023-04-17T15:02:07.351Z,9.37
2023-04-17T15:04:42.549Z,9.10
2023-04-17T15:07:16.163Z,8.97
2023-04-17T15:09:49.846Z,8.57
2023-04-17T15:12:25.087Z,9.00
2023-04-17T15:14:58.097Z,8.77
2023-04-17T15:17:32.588Z,8.87
2023-04-17T15:20:08.898Z,8.53
2023-04-17T15:22:42.414Z,9.53
2023-04-17T15:25:18.447Z,9.70
2023-04-17T15:27:52.461Z,9.00
2023-04-17T15:30:25.881Z,8.80
2023-04-17T15:33:01.031Z,8.27
2023-04-17T15:35:34.648Z,8.63
2023-04-17T15:38:09.273Z,8.47
2023-04-17T15:40:43.126Z,9.00
2023-04-17T15:43:18.320Z,8.80
2023-04-17T15:45:53.104Z,9.27
2023-04-17T15:48:26.548Z,8.77
2023-04-17T15:51:00.540Z,8.43
2023-04-17T15:53:34.146Z,8.97
2023-04-17T15:56:08.571Z,8.80
2023-04-17T15:58:43.989Z,8.73
2023-04-17T16:01:17.657Z,9.70
2023-04-17T16:03:51.243Z,9.23
2023-04-17T16:06:26.076Z,8.40
2023-04-17T16:08:59.441Z,9.43
2023-04-17T16:11:33.063Z,8.87
2023-04-17T16:14:07.877Z,8.93
2023-04-17T16:16:42.902Z,9.17
2023-04-17T16:19:18.213Z,9.77
2023-04-17T16:21:52.798Z,8.53
2023-04-17T16:24:26.962Z,9.10
2023-04-17T16:27:01.646Z,8.87
2023-04-17T16:29:36.424Z,8.37
2023-04-17T16:32:12.113Z,8.43
2023-04-17T16:34:46.486Z,8.13
2023-04-17T16:37:20.363Z,7.97
2023-04-17T16:39:54.588Z,7.93
2023-04-17T16:42:28.044Z,10.33
2023-04-17T16:45:01.205Z,8.47
2023-04-17T16:47:35.610Z,8.57
2023-04-17T16:50:12.242Z,7.93
2023-04-17T16:52:46.276Z,7.43
2023-04-17T16:55:20.191Z,7.33
2023-04-17T16:57:55.869Z,7.77
2023-04-17T17:00:29.482Z,7.37
2023-04-17T17:03:03.246Z,7.60
2023-04-17T17:05:36.725Z,7.53
2023-04-17T17:08:11.533Z,7.73
2023-04-17T17:10:46.508Z,8.40
2023-04-17T17:13:19.981Z,7.40
2023-04-17T17:15:54.423Z,7.63
2023-04-17T17:18:28.033Z,7.63
2023-04-17T17:21:02.752Z,7.47
2023-04-17T17:23:38.258Z,7.53
2023-04-17T17:26:12.710Z,6.73
2023-04-17T19:03:57.810Z,7.93
2023-04-17T19:06:31.481Z,7.50
2023-04-17T19:09:06.389Z,8.00
2023-04-17T19:11:41.186Z,7.47
2023-04-17T19:14:14.482Z,7.57
2023-04-17T19:16:48.402Z,7.90
2023-04-17T19:19:24.860Z,7.33
2023-04-17T19:21:57.870Z,8.33
2023-04-17T19:24:32.156Z,7.37
2023-04-17T19:27:05.458Z,8.17
2023-04-17T19:29:39.209Z,7.57
2023-04-17T19:32:12.349Z,8.47
2023-04-17T19:34:47.025Z,7.80
2023-04-17T19:37:20.283Z,7.70
2023-04-17T19:39:56.489Z,7.70
2023-04-17T19:42:30.801Z,8.07
2023-04-17T19:45:04.052Z,8.63
2023-04-17T19:47:40.530Z,7.87
2023-04-17T19:50:14.885Z,8.70
2023-04-17T19:52:48.466Z,8.17
2023-04-17T19:55:23.122Z,8.97
2023-04-17T19:57:58.862Z,7.83
2023-04-17T20:00:31.949Z,9.03
2023-04-17T20:03:05.564Z,7.07
2023-04-17T20:05:41.004Z,7.20
2023-04-17T20:08:14.629Z,6.80
2023-04-17T20:10:48.319Z,6.90
2023-04-17T20:13:21.496Z,6.97
2023-04-17T20:15:54.304Z,7.40
2023-04-17T20:18:27.900Z,6.77
2023-04-17T20:21:01.397Z,7.13
2023-04-17T20:23:34.901Z,6.57
2023-04-17T20:26:08.372Z,6.40
2023-04-17T20:28:41.473Z,6.70
2023-04-17T20:31:14.513Z,6.27
2023-04-17T20:33:47.844Z,6.20
2023-04-17T20:36:20.766Z,6.57
2023-04-17T20:38:55.000Z,5.93
2023-04-17T20:41:28.155Z,6.57
2023-04-17T20:44:02.661Z,6.40
2023-04-17T20:46:40.212Z,6.10
2023-04-17T20:49:13.482Z,6.90
2023-04-17T20:51:47.496Z,6.47
2023-04-17T20:54:20.664Z,7.00
2023-04-17T20:56:55.390Z,7.23
2023-04-17T20:59:28.646Z,7.40
2023-04-17T21:02:02.021Z,7.07
2023-04-17T21:04:35.041Z,6.87
2023-04-17T21:07:09.870Z,6.37
2023-04-17T21:09:43.120Z,7.00
2023-04-17T21:12:16.784Z,7.53
2023-04-17T21:14:50.293Z,6.37
2023-04-17T21:17:23.415Z,6.93
2023-04-17T21:19:58.223Z,7.00
2023-04-17T21:22:31.413Z,7.43
2023-04-17T21:25:04.635Z,7.20
2023-04-17T21:27:37.813Z,6.80
2023-04-17T21:30:12.425Z,6.27
2023-04-17T21:32:46.797Z,7.23
2023-04-17T21:35:19.841Z,7.23
2023-04-17T21:37:53.033Z,6.40
2023-04-17T21:40:27.642Z,6.73
2023-04-17T21:43:05.949Z,6.97
2023-04-17T21:45:39.019Z,6.93
2023-04-17T21:48:13.258Z,6.70
2023-04-17T21:50:48.787Z,7.53
2023-04-17T21:53:22.932Z,6.93
2023-04-17T21:55:58.152Z,7.40
2023-04-17T21:58:31.747Z,7.87
2023-04-17T22:01:04.815Z,7.53
2023-04-17T22:03:38.004Z,7.17
2023-04-17T22:06:12.236Z,7.37
2023-04-17T22:08:46.528Z,7.47
2023-04-17T22:11:20.101Z,7.03
2023-04-17T22:13:53.695Z,7.30
2023-04-17T22:16:26.722Z,7.87
2023-04-17T22:19:01.364Z,8.20
2023-04-17T22:21:34.419Z,8.23
2023-04-17T22:24:09.231Z,7.73
2023-04-17T22:26:42.477Z,7.10
2023-04-17T22:29:15.858Z,7.77
2023-04-17T22:31:50.065Z,8.10
2023-04-17T22:34:23.708Z,8.23
2023-04-17T22:36:57.256Z,7.80
2023-04-17T22:39:31.182Z,7.70
2023-04-17T22:42:05.299Z,8.73
2023-04-17T22:44:40.593Z,7.77
2023-04-17T22:47:15.604Z,8.63
2023-04-17T22:49:48.781Z,8.00
2023-04-17T22:52:23.412Z,8.93
2023-04-17T22:54:56.609Z,7.87
2023-04-17T22:57:29.793Z,8.37
2023-04-17T23:00:03.987Z,8.33
2023-04-17T23:02:37.140Z,8.50
2023-04-17T23:05:12.060Z,9.70
2023-04-17T23:07:46.592Z,8.57
2023-04-17T23:10:20.207Z,8.30
2023-04-17T23:12:53.910Z,8.37
2023-04-17T23:15:27.141Z,8.35
2023-04-17T23:18:00.291Z,8.30
2023-04-17T23:20:33.393Z,8.93
2023-04-17T23:23:07.272Z,8.60
2023-04-17T23:25:40.857Z,8.23
2023-04-17T23:28:14.634Z,9.70
2023-04-17T23:30:47.755Z,8.67
2023-04-17T23:33:21.590Z,9.07
2023-04-17T23:35:55.786Z,8.63
2023-04-17T23:38:30.045Z,9.43
2023-04-17T23:41:04.768Z,8.97
2023-04-17T23:43:37.847Z,8.40
2023-04-17T23:46:10.906Z,9.10
2023-04-17T23:48:44.995Z,8.77
2023-04-17T23:51:18.314Z,8.40
2023-04-17T23:53:56.271Z,9.00
2023-04-17T23:56:31.253Z,8.83
2023-04-17T23:59:05.937Z,9.57
